Anderson, AK

11:42 PM AKDT on October 30, 2014 (GMT -0800)
Nenana Municipal | Change Station
CLOSE
Current Station
Airport
Location: Nenana,
Elevation: 361 ft
Nearby Weather Stations

Elev 361 ft 64.55 °N, 149.07 °W | Updated 49 minutes ago

Light Snow
Light Snow
15 °F
Feels Like 15 °F
N
0
Wind Variable Wind from North

Today
High -- | Low -- °F
--% Chance of Precip.
Yesterday
High -- | Low -- °F
Precip. -- in
9:34 AM 5:44 PM
First Quarter, 52% visible
Pressure 29.62 in
Visibility 8.0 miles
Clouds Overcast 4500 ft
Dew Point 11 °F
Humidity 84%
Rainfall 0.01 in
Snow Depth Not available.
UV 0 out of 12
Pollen Not available.
Air Quality Not available.
Flu Activity Not available.
METAR PANN 310653Z AUTO 00000KT 8SM -SN OVC045 M09/M12 A2958 RMK AO2 SNB40 SLP028 P0000 T10941117 TSNO

More Conditions Fewer Conditions

Pressure 29.62 in
Visibility 8.0 miles
Clouds Overcast 4500 ft
Dew Point 11 °F
Humidity 84%
Rainfall 0.01 in
Snow Depth Not available.
UV 0 out of 12
Pollen Not available.
Air Quality Not available.
Flu Activity Not available.
METAR PANN 310653Z AUTO 00000KT 8SM -SN OVC045 M09/M12 A2958 RMK AO2 SNB40 SLP028 P0000 T10941117 TSNO

More Conditions Fewer Conditions

10-Day Weather Forecast

Almanac

Astronomy

Oct. 30, 2014 Rise Set
Actual Time
Civil Twilight
Nautical Twilight
Astronomical Twilight
Moon
Length of Visible Light
Length of Day
Tomorrow will be .
, % of the Moon is Illuminated

Today's Extremes

State Highs State Lows

Community

WunderPhotos

Upload Photos

1,766,573 photos uploaded!

WunderBlogs® & News

Nearby

Air Quality

  Air Quality AQ Index Pollutant
Not available.

Snow Depth

Station Depth Elevation

Earthquake Activity

City Distance Mag. Time & Date
Minimum magnitude displayed is 2.5.

Coastal Water Temperatures

Place Temperature

Nearby Weather Stations